Stations météo

Publicité
Carpentras, France (7586): Température de l'air & dewpoint: 02.07.2020 23:00:00 - 08.07.2020 23:00:00 (CEST)Carpentras, France (7586): Température de l'air 5cm: 02.07.2020 23:00:00 - 08.07.2020 23:00:00 (CEST)Carpentras, France (7586): Température de l'air -20cm & Température de l'air -100cm: 02.07.2020 23:00:00 - 08.07.2020 23:00:00 (CEST)Carpentras, France (7586): Vitesse du vent: 02.07.2020 23:00:00 - 08.07.2020 23:00:00 (CEST)Carpentras, France (7586): Direction du vent: 02.07.2020 23:00:00 - 08.07.2020 23:00:00 (CEST)Carpentras, France (7586): reduced air pressure: 02.07.2020 23:00:00 - 08.07.2020 23:00:00 (CEST)Carpentras, France (7586): Ensoleillement: 02.07.2020 23:00:00 - 08.07.2020 23:00:00 (CEST)Carpentras, France (7586): Quantités de précipitations: 02.07.2020 23:00:00 - 08.07.2020 23:00:00 (CEST)
Date & Time tt [°C] td [°C] tt 5cm [°C] tt -20cm [°C] tt -100cm [°C] ff [km/h] ff [knt] dd ppp [hPa] sd [min] rr [mm]
08.07.2020 23:00:00 22,5 10,6 17,7 31,9 25,2 2 1 E 1016,8 0 0,0
08.07.2020 22:00:00 24,8 10,6 24,0 32,0 25,2 9 5 SSW 1015,6 0 0,0
08.07.2020 21:00:00 27,6 11,6 27,8 31,8 25,2 11 6 SSW 1014,8 60 0,0
08.07.2020 20:00:00 31,8 4,5 34,3 31,5 25,2 9 5 WNW 1014,4 60 0,0
08.07.2020 19:00:00 32,8 3,7 36,8 31,1 25,2 11 6 WNW 1014,4 60 0,0
08.07.2020 18:00:00 32,6 8,8 37,2 30,5 25,2 13 7 NW 1014,7 60 0,0
08.07.2020 17:00:00 32,6 10,0 39,7 29,7 25,2 8 4 WSW 1015,2 60 0,0
08.07.2020 16:00:00 32,2 10,3 40,0 29,0 25,2 9 5 W 1015,5 60 0,0
08.07.2020 15:00:00 31,8 11,0 39,6 28,4 25,2 5 3 NNW 1015,8 60 0,0
08.07.2020 14:00:00 30,9 10,8 37,6 28,0 25,2 4 2 NW 1016,3 60 0,0
08.07.2020 13:00:00 30,3 10,3 35,9 27,7 25,2 6 3 NNW 1016,5 60 0,0
08.07.2020 12:00:00 28,3 10,0 32,7 27,7 25,2 6 3 WNW 1016,6 60 0,0
08.07.2020 11:00:00 25,9 10,9 27,8 27,7 25,2 5 3 WNW 1016,6 60 0,0
08.07.2020 10:00:00 23,8 10,1 23,8 27,9 25,1 3 1 SW 1016,5 60 0,0
08.07.2020 09:00:00 21,2 9,7 16,6 28,1 25,2 3 2 N 1016,5 47 0,0
08.07.2020 08:00:00 16,3 10,2 14,8 28,4 25,2 4 2 E 1016,3 14 0,0
08.07.2020 07:00:00 16,4 9,6 12,3 28,7 25,1 3 2 ENE 1016,1 29 0,0
08.07.2020 06:00:00 14,1 8,7 11,7 29,1 25,2 2 1 E 1015,9 0 0,0
08.07.2020 05:00:00 14,6 8,5 11,6 29,4 25,1 4 2 E 1015,7 0 0,0
08.07.2020 04:00:00 14,6 8,8 11,3 29,8 25,1 4 2 SE 1015,8 0 0,0
08.07.2020 03:00:00 16,0 9,0 11,9 30,1 25,1 5 3 E 1015,9 0 0,0
08.07.2020 02:00:00 16,3 8,8 12,6 30,4 25,1 2 1 E 1015,8 0 0,0
08.07.2020 01:00:00 18,4 8,9 13,7 30,7 25,1 5 3 E 1015,6 0 0,0
08.07.2020 00:00:00 19,2 9,1 14,1 31,0 25,1 2 1 S 1015,2 0 0,0
07.07.2020 23:00:00 22,2 8,3 17,6 31,2 25,1 5 3 NNE 1014,8 0 0,0
07.07.2020 22:00:00 23,4 7,5 18,4 31,2 25,1 0 0 N 1014,4 0 0,0
07.07.2020 21:00:00 26,4 7,9 26,6 31,1 25,1 6 4 WNW 1013,8 60 0,0
07.07.2020 20:00:00 28,5 8,2 31,1 30,8 25,1 12 6 WNW 1013,5 60 0,0
07.07.2020 19:00:00 29,7 8,7 33,9 30,4 25,1 13 7 WNW 1013,4 60 0,0
07.07.2020 18:00:00 30,4 8,7 35,0 29,8 25,1 15 8 WNW 1013,3 60 0,0
07.07.2020 17:00:00 30,6 8,3 36,0 29,2 25,1 17 9 WNW 1013,4 60 0,0
07.07.2020 16:00:00 30,6 8,3 36,9 28,6 25,1 18 10 WNW 1013,3 60 0,0
07.07.2020 15:00:00 30,5 8,8 35,5 28,0 25,1 16 9 WNW 1013,1 60 0,0
07.07.2020 14:00:00 29,2 8,3 35,3 27,7 25,1 19 10 WNW 1013,2 60 0,0
07.07.2020 13:00:00 27,8 8,1 32,1 27,4 25,1 14 8 NNW 1013,4 60 0,0
07.07.2020 12:00:00 26,4 6,9 29,2 27,4 25,1 20 11 NNW 1013,4 60 0,0
07.07.2020 11:00:00 25,3 6,5 26,0 27,4 25,1 19 10 NNW 1013,1 60 0,0
07.07.2020 10:00:00 23,5 6,3 23,3 27,6 25,1 18 10 NNW 1013,0 60 0,0
07.07.2020 09:00:00 21,6 5,5 20,7 27,8 25,0 16 9 NNW 1013,0 60 0,0
07.07.2020 08:00:00 20,0 5,2 18,5 28,1 25,0 18 10 NW 1012,7 60 0,0
07.07.2020 07:00:00 18,9 5,0 18,1 28,4 25,0 16 9 NNW 1012,9 22 0,0
07.07.2020 06:00:00 19,0 5,1 17,4 28,7 25,0 25 13 NNW 1012,6 0 0,0
07.07.2020 05:00:00 18,3 5,2 17,2 29,0 25,0 13 7 WNW 1012,6 0 0,0
07.07.2020 04:00:00 19,5 4,8 18,6 29,4 25,0 24 13 NW 1012,4 0 0,0
07.07.2020 03:00:00 19,7 5,0 19,0 29,7 25,0 16 9 NW 1013,5 0 0,0
07.07.2020 02:00:00 20,5 4,5 20,1 30,0 25,0 29 16 NNW 1013,7 0 0,0
07.07.2020 01:00:00 21,4 4,0 20,8 30,3 25,0 24 13 NNW 1013,8 0 0,0
07.07.2020 00:00:00 22,0 4,5 21,6 30,6 25,0 25 13 NNW 1014,1 0 0,0
06.07.2020 23:00:00 22,9 3,9 22,2 30,9 25,0 26 14 NW 1014,5 0 0,0
06.07.2020 22:00:00 23,6 3,5 23,1 31,1 25,0 25 13 NNW 1013,8 0 0,0
06.07.2020 21:00:00 24,8 5,0 25,0 31,2 25,0 24 13 NNW 1013,8 60 0,0
06.07.2020 20:00:00 26,3 5,3 27,5 31,1 25,0 31 17 NNW 1013,1 45 0,0
06.07.2020 19:00:00 27,4 7,3 29,9 30,9 25,0 27 15 NNW 1013,2 60 0,0
06.07.2020 18:00:00 28,1 9,4 31,1 30,6 24,9 34 18 NW 1012,8 60 0,0
06.07.2020 17:00:00 28,1 10,8 32,4 30,2 25,0 33 18 NNW 1013,2 60 0,0
06.07.2020 16:00:00 28,7 13,4 33,5 29,7 24,9 24 13 NNW 1013,1 60 0,0
06.07.2020 15:00:00 28,8 13,9 32,9 29,3 24,9 24 13 NNW 1013,0 60 0,0
06.07.2020 14:00:00 28,6 14,8 34,0 29,0 24,9 26 14 NNW 1013,1 60 0,0
06.07.2020 13:00:00 29,1 14,5 33,2 28,8 24,9 23 13 NNW 1013,3 60 0,0
06.07.2020 12:00:00 28,7 14,5 30,9 28,8 24,9 19 11 NNW 1013,6 60 0,0
06.07.2020 11:00:00 27,1 15,1 28,8 28,8 24,9 25 14 NNW 1013,9 60 0,0
06.07.2020 10:00:00 26,5 14,9 27,1 29,0 24,9 21 11 NW 1014,0 60 0,0
06.07.2020 09:00:00 25,6 15,3 25,1 29,2 24,9 21 12 NW 1013,8 60 0,0
06.07.2020 08:00:00 24,5 15,4 23,7 29,5 24,9 14 8 NW 1013,7 60 0,0
06.07.2020 07:00:00 23,9 14,6 21,2 29,7 24,9 13 7 NW 1013,5 22 0,0
06.07.2020 06:00:00 22,2 14,3 17,2 30,0 24,9 10 5 W 1013,4 0 0,0
06.07.2020 05:00:00 22,3 13,4 18,9 30,3 24,9 5 3 WSW 1013,2 0 0,0
06.07.2020 04:00:00 25,9 11,6 24,7 30,6 24,9 11 6 NNW 1013,7 0 0,0
06.07.2020 03:00:00 26,5 12,5 22,1 30,9 24,9 13 7 NNW 1014,2 0 0,0
06.07.2020 02:00:00 24,7 12,9 23,1 31,1 24,9 8 5 W 1014,8 0 0,0
06.07.2020 01:00:00 25,1 13,0 23,7 31,3 24,9 7 4 SW 1014,7 0 0,0
06.07.2020 00:00:00 28,1 11,6 27,2 31,5 24,9 14 7 NNW 1014,3 0 0,0
05.07.2020 23:00:00 28,8 11,8 27,9 31,7 24,9 13 7 NNW 1014,3 0 0,0
05.07.2020 22:00:00 29,4 12,8 28,7 31,7 24,9 17 9 N 1014,0 0 0,0
05.07.2020 21:00:00 30,6 13,4 30,8 31,5 24,9 17 9 NNW 1013,7 60 0,0
05.07.2020 20:00:00 31,9 14,5 34,0 31,3 24,9 14 8 NNW 1013,5 60 0,0
05.07.2020 19:00:00 32,4 15,0 35,6 30,8 24,9 18 10 NNW 1013,9 60 0,0
05.07.2020 18:00:00 33,5 15,9 37,2 30,3 24,9 14 8 NW 1014,2 60 0,0
05.07.2020 17:00:00 33,2 15,2 38,5 29,6 24,9 20 11 WNW 1014,4 60 0,0
05.07.2020 16:00:00 33,0 15,0 39,2 29,0 24,9 17 9 WNW 1015,0 60 0,0
05.07.2020 15:00:00 32,5 14,6 39,2 28,4 24,8 19 10 WNW 1015,4 60 0,0
05.07.2020 14:00:00 32,0 15,1 37,8 28,0 24,8 20 11 WNW 1015,9 60 0,0
05.07.2020 13:00:00 31,3 14,4 35,4 27,7 24,8 14 8 NW 1016,4 60 0,0
05.07.2020 12:00:00 29,7 13,0 33,1 27,6 24,9 15 8 NNW 1016,8 60 0,0
05.07.2020 11:00:00 28,4 12,7 29,5 27,6 24,8 16 8 NNW 1017,1 60 0,0
05.07.2020 10:00:00 27,0 11,9 27,5 27,7 24,8 18 10 NNW 1017,0 60 0,0
05.07.2020 09:00:00 25,1 10,5 24,6 27,9 24,8 12 7 NW 1017,4 60 0,0
05.07.2020 08:00:00 23,5 10,5 21,9 28,1 24,8 9 5 W 1017,5 60 0,0
05.07.2020 07:00:00 22,3 10,1 21,3 28,3 24,8 8 5 W 1017,4 22 0,0
05.07.2020 06:00:00 22,7 9,5 19,7 28,6 24,8 9 5 N 1017,4 0 0,0
05.07.2020 05:00:00 22,9 9,3 21,5 28,9 24,8 8 5 NW 1017,5 0 0,0
05.07.2020 04:00:00 22,2 8,3 20,4 29,1 24,8 10 5 NW 1017,7 0 0,0
05.07.2020 03:00:00 21,9 8,4 20,3 29,4 24,9 11 6 WNW 1017,8 0 0,0
05.07.2020 02:00:00 22,3 8,4 20,2 29,7 24,8 8 4 WNW 1017,9 0 0,0
05.07.2020 01:00:00 24,1 7,3 20,9 29,9 24,8 6 3 NW 1018,1 0 0,0
05.07.2020 00:00:00 24,2 5,5 19,2 30,2 24,8 6 3 W 1017,8 0 0,0
04.07.2020 23:00:00 25,6 5,2 24,2 30,3 24,9 10 6 NNW 1017,9 0 0,0
04.07.2020 22:00:00 26,4 4,8 25,3 30,4 24,8 14 8 NNW 1017,6 0 0,0
04.07.2020 21:00:00 27,2 5,5 27,1 30,3 24,8 16 9 NNW 1017,1 51 0,0
04.07.2020 20:00:00 28,4 7,0 29,8 30,1 24,8 21 11 NNW 1017,0 60 0,0
04.07.2020 19:00:00 29,4 9,0 32,5 29,7 24,8 16 9 NNW 1016,4 60 0,0
04.07.2020 18:00:00 30,1 10,6 34,3 29,2 24,8 16 9 NW 1017,0 60 0,0
04.07.2020 17:00:00 29,7 10,3 35,0 28,7 24,9 18 10 NW 1017,2 60 0,0
04.07.2020 16:00:00 30,0 11,0 34,0 28,1 24,8 19 10 WNW 1017,3 60 0,0
04.07.2020 15:00:00 29,3 11,4 32,3 27,6 24,8 14 8 NW 1017,3 47 0,0
04.07.2020 14:00:00 27,9 11,4 31,5 27,2 24,8 15 8 WNW 1018,0 39 0,0
04.07.2020 13:00:00 27,3 11,3 32,1 27,0 24,8 19 11 NW 1018,3 58 0,0
04.07.2020 12:00:00 26,6 11,5 30,9 26,9 24,8 20 11 WNW 1018,3 60 0,0
04.07.2020 11:00:00 25,6 11,4 29,0 27,0 24,8 16 8 WNW 1018,2 60 0,0
04.07.2020 10:00:00 25,1 10,2 25,1 27,1 24,8 4 2 E 1018,4 60 0,0
04.07.2020 09:00:00 22,9 10,0 20,6 27,3 24,8 2 1 S 1018,5 60 0,0
04.07.2020 08:00:00 19,9 10,0 16,1 27,5 24,8 3 2 SE 1018,5 60 0,0
04.07.2020 07:00:00 17,1 9,3 12,8 27,8 24,8 0 0 N 1018,1 23 0,0
04.07.2020 06:00:00 17,0 8,7 13,1 28,0 24,8 5 3 ENE 1017,6 0 0,0
04.07.2020 05:00:00 18,8 8,2 16,4 28,3 24,8 3 2 N 1017,1 0 0,0
04.07.2020 04:00:00 20,2 7,9 19,4 28,6 24,8 12 7 NW 1017,0 0 0,0
04.07.2020 03:00:00 20,5 8,2 19,7 28,8 24,8 14 7 NNW 1016,9 0 0,0
04.07.2020 02:00:00 21,1 8,0 20,2 29,1 24,8 17 9 NNW 1016,7 0 0,0
04.07.2020 01:00:00 21,2 8,1 20,7 29,3 24,8 17 9 NNW 1016,7 0 0,0
04.07.2020 00:00:00 21,8 8,0 21,2 29,6 24,8 16 9 NNW 1016,9 0 0,0
03.07.2020 23:00:00 22,5 7,8 21,9 29,8 24,8 19 11 NW 1016,5 0 0,0
03.07.2020 22:00:00 23,0 7,5 22,7 29,9 24,8 23 12 NNW 1015,5 1 0,0
03.07.2020 21:00:00 23,8 8,6 24,1 29,9 24,8 25 14 NNW 1014,9 60 0,0
03.07.2020 20:00:00 24,8 9,1 26,4 29,7 24,8 22 12 NNW 1014,3 60 0,0
03.07.2020 19:00:00 25,7 8,7 28,4 29,4 24,8 23 12 NW 1013,6 60 0,0
03.07.2020 18:00:00 26,1 9,4 29,5 29,0 24,8 25 13 N 1013,9 60 0,0
03.07.2020 17:00:00 25,8 8,7 30,1 28,6 24,8 29 16 NNW 1013,6 60 0,0
03.07.2020 16:00:00 26,2 9,1 30,5 28,1 24,8 23 12 NNW 1013,7 60 0,0
03.07.2020 15:00:00 25,8 9,2 30,7 27,7 24,8 26 14 NNW 1014,0 60 0,0
03.07.2020 14:00:00 25,3 9,6 29,5 27,4 24,8 27 15 NNW 1014,6 60 0,0
03.07.2020 13:00:00 24,5 10,0 28,1 27,3 24,8 29 16 NNW 1015,0 60 0,0
03.07.2020 12:00:00 23,3 9,7 26,8 27,3 24,8 29 16 NW 1015,3 60 0,0
03.07.2020 11:00:00 22,9 10,3 24,3 27,4 24,8 19 11 NNW 1015,4 60 0,0
03.07.2020 10:00:00 22,0 9,8 22,6 27,5 24,8 20 11 NNW 1015,8 60 0,0
03.07.2020 09:00:00 21,1 9,7 20,7 27,8 24,8 19 10 NNW 1015,8 60 0,0
03.07.2020 08:00:00 20,3 9,5 18,9 28,0 24,7 17 9 NNW 1015,6 60 0,0
03.07.2020 07:00:00 19,0 10,3 17,7 28,3 24,8 15 8 NW 1015,7 23 0,0
03.07.2020 06:00:00 18,6 10,4 17,9 28,6 24,8 16 8 WNW 1015,7 0 0,0
03.07.2020 05:00:00 19,1 11,4 18,4 28,9 24,8 14 7 NW 1015,4 0 0,0
03.07.2020 04:00:00 19,6 11,4 19,0 29,2 24,8 12 7 NW 1015,1 0 0,0
03.07.2020 03:00:00 20,4 10,8 19,6 29,5 24,8 10 5 WNW 1015,1 0 0,0
03.07.2020 02:00:00 21,7 10,5 20,9 29,8 24,8 15 8 NNW 1014,9 0 0,0
03.07.2020 01:00:00 21,7 12,0 21,1 30,2 24,8 16 9 NNW 1014,8 0 0,0
03.07.2020 00:00:00 21,9 13,8 21,3 30,4 24,8 12 6 NNW 1014,4 0 0,0
02.07.2020 23:00:00 22,8 15,9 21,5 30,6 24,8 15 8 NW 1013,6 0 0,0

tt = Température de l'air
td = dewpoint
tt 5cm = Température de l'air 5cm
tt -20cm = Température de l'air -20cm
tt -100cm = Température de l'air -100cm
ff = Vitesse du vent
dd = Direction du vent
ppp = reduced air pressure
sd = Ensoleillement
rr = Quantités de précipitations

stations d'obs. à proximité